createdAt,value
2019-03-20T00:06:56.105Z,37.7
2019-03-20T00:16:55.377Z,37.6
2019-03-20T00:26:54.538Z,37.6
2019-03-20T00:36:53.754Z,37.6
2019-03-20T00:46:52.973Z,37.6
2019-03-20T00:56:52.190Z,37.6
2019-03-20T01:06:51.401Z,37.6
2019-03-20T01:16:50.618Z,36.6
2019-03-20T01:26:49.836Z,36.6
2019-03-20T01:37:02.745Z,36.5
2019-03-20T01:47:01.955Z,36.6
2019-03-20T01:57:01.224Z,36.6
2019-03-20T02:07:00.389Z,36.6
2019-03-20T02:16:59.607Z,36.6
2019-03-20T02:26:58.823Z,36.6
2019-03-20T02:36:58.045Z,36.5
2019-03-20T02:46:57.366Z,36.5
2019-03-20T02:56:56.696Z,36.5
2019-03-20T03:06:56.003Z,36.5
2019-03-20T03:16:55.321Z,36.5
2019-03-20T03:26:54.642Z,36.4
2019-03-20T03:36:53.909Z,35.1
2019-03-20T03:46:53.126Z,35.5
2019-03-20T03:56:52.343Z,34.7
2019-03-20T04:06:51.559Z,34.5
2019-03-20T04:16:50.779Z,34.7
2019-03-20T04:26:49.993Z,34.7
2019-03-20T04:36:49.202Z,34.7
2019-03-20T04:46:48.422Z,31.5
2019-03-20T04:56:47.634Z,26.5
2019-03-20T05:06:57.861Z,26.3
2019-03-20T05:16:46.064Z,26.1
2019-03-20T05:26:45.277Z,25.8
2019-03-20T05:36:44.491Z,24.8
2019-03-20T05:46:43.707Z,25.2
2019-03-20T05:56:42.923Z,23.6
2019-03-20T06:06:42.140Z,23.4
2019-03-20T06:16:41.359Z,23.6
2019-03-20T06:26:40.579Z,24.1
2019-03-20T06:36:39.790Z,24.5
2019-03-20T06:46:39.007Z,25.3
2019-03-20T06:56:38.230Z,26.2
2019-03-20T07:06:37.445Z,26.9
2019-03-20T07:16:36.658Z,27.7
2019-03-20T07:26:35.874Z,28.9
2019-03-20T07:36:35.091Z,29.9
2019-03-20T07:46:34.309Z,30.9
2019-03-20T07:56:33.525Z,32
2019-03-20T08:06:32.743Z,32.9
2019-03-20T08:16:32.907Z,33.8
2019-03-20T08:26:32.122Z,34.6
2019-03-20T08:36:31.338Z,35.6
2019-03-20T08:46:30.574Z,36.5
2019-03-20T08:56:29.787Z,37.4
2019-03-20T09:06:28.994Z,38.2
2019-03-20T09:16:28.220Z,38.6
2019-03-20T09:26:27.423Z,39.3
2019-03-20T09:36:26.654Z,39.8
2019-03-20T09:46:25.858Z,40.4
2019-03-20T09:56:25.086Z,41.2
2019-03-20T10:06:24.291Z,41.8
2019-03-20T10:16:23.507Z,42.4
2019-03-20T10:26:22.726Z,43.2
2019-03-20T10:36:21.938Z,43.9
2019-03-20T10:46:21.259Z,44.4
2019-03-20T10:56:20.373Z,45.1
2019-03-20T11:06:19.615Z,45.8
2019-03-20T11:16:18.806Z,46.5
2019-03-20T11:26:18.024Z,47.2
2019-03-20T11:36:17.239Z,47.9
2019-03-20T11:46:16.462Z,48.6
2019-03-20T11:56:15.670Z,49.3
2019-03-20T12:06:14.886Z,49.9
2019-03-20T12:16:14.104Z,50.3
2019-03-20T12:26:13.323Z,50.7
2019-03-20T12:36:12.531Z,51.1
2019-03-20T12:46:11.749Z,51.6
2019-03-20T12:56:10.962Z,51.9
2019-03-20T13:06:10.186Z,52.4
2019-03-20T13:16:09.397Z,52.9
2019-03-20T13:26:08.606Z,53.3
2019-03-20T13:36:07.830Z,53.6
2019-03-20T13:46:07.036Z,54
2019-03-20T13:56:06.249Z,54.4
2019-03-20T14:06:05.471Z,54.9
2019-03-20T14:16:04.677Z,55.3
2019-03-20T14:26:03.894Z,55.8
2019-03-20T14:36:03.105Z,56.2
2019-03-20T14:46:02.319Z,56.6
2019-03-20T14:56:01.531Z,56.9
2019-03-20T15:06:00.745Z,57.2
2019-03-20T15:15:59.961Z,57.5
2019-03-20T15:25:59.175Z,57.6
2019-03-20T15:35:58.389Z,57.4
2019-03-20T15:45:57.608Z,57.3
2019-03-20T15:55:56.823Z,57.1
2019-03-20T16:05:56.046Z,56.8
2019-03-20T16:15:55.253Z,56.6
2019-03-20T16:25:54.471Z,56
2019-03-20T16:35:53.688Z,55.6
2019-03-20T16:45:52.904Z,54.1
2019-03-20T16:55:52.118Z,33.9
2019-03-20T17:05:51.337Z,32
2019-03-20T17:15:50.550Z,32.9
2019-03-20T17:25:49.765Z,33.3
2019-03-20T17:35:48.980Z,32.9
2019-03-20T17:45:48.204Z,33.2
2019-03-20T17:55:47.416Z,33.4
2019-03-20T18:05:46.643Z,32.9
2019-03-20T18:15:45.845Z,32.9
2019-03-20T18:25:45.063Z,29.6
2019-03-20T18:35:44.279Z,27.8
2019-03-20T18:45:43.494Z,26.9
2019-03-20T18:55:42.711Z,27.3
2019-03-20T19:05:41.971Z,25.3
2019-03-20T19:15:41.198Z,21.9
2019-03-20T19:25:40.376Z,21.9
2019-03-20T19:35:39.585Z,22
2019-03-20T19:45:38.808Z,22
2019-03-20T19:55:38.026Z,21.8
2019-03-20T20:05:37.246Z,19.4
2019-03-20T20:14:14.249Z,19.5
2019-03-20T20:24:13.467Z,19.5
2019-03-20T20:34:12.685Z,19.4
2019-03-20T20:44:11.905Z,19.3
2019-03-20T20:54:11.123Z,19.2
2019-03-20T20:59:03.571Z,19.2
2019-03-20T21:09:02.782Z,19.3
2019-03-20T21:19:02.000Z,19.3
2019-03-20T21:29:01.222Z,19.3
2019-03-20T21:39:00.436Z,19.4
2019-03-20T21:48:59.656Z,19.4
2019-03-20T21:58:58.878Z,19.5
2019-03-20T22:08:58.202Z,19.6
2019-03-20T22:18:57.523Z,19.6
2019-03-20T22:28:56.838Z,19.6
2019-03-20T22:33:58.887Z,19.7
2019-03-20T22:43:58.102Z,19.7
2019-03-20T22:53:57.316Z,19.8
2019-03-20T23:03:56.534Z,19.8
2019-03-20T23:13:55.752Z,19.9
2019-03-20T23:23:54.968Z,19.9
2019-03-20T23:33:54.203Z,20
2019-03-20T23:43:53.651Z,20.1
2019-03-20T23:53:52.841Z,20.1
